Terminal Aerodrome Forecast
Issued by NWS

Home | Current Version | Previous Version | Graphics & Text | Print | Product List | Glossary On
Versions: 1 2 3 4 5 6 7 8 9 10 11 12 13 14 15 16 17 18 19
000
FTUS43 KICT 281747
TAFCNU
TAF
KCNU 281747Z 2818/0118 12008KT 3/4SM -SN BR OVC015
      TEMPO 2818/2822 1/4SM +SN OVC007
     FM010000 13008KT 3SM -SN BR OVC015
     FM010300 VRB04KT P6SM OVC010
     FM011600 35008KT P6SM SCT010 BKN060=

USA.gov is the U.S. government's official web portal to all federal, state and local government web resources and services.